Terminal Aerodrome Forecast
Issued by NWS St Louis, MO

Home | Current Version | Previous Version | Text Only | Print | Product List | Glossary On
Versions: 1 2 3 4 5 6 7 8 9 10 11 12 13 14 15 16 17 18 19 20 21 22 23 24
343
FTUS43 KLSX 261328 AAA
TAFCOU
TAF AMD
KCOU 261328Z 2613/2712 05005KT 4SM BR VCSH BKN006
      TEMPO 2613/2614 1/2SM FG OVC003
     FM261400 10006KT P6SM BKN030
     FM261900 13007KT P6SM VCTS BKN040CB
     FM270100 13006KT P6SM SCT050 BKN120
     FM270600 18006KT P6SM BKN120=

USA.gov is the U.S. government's official web portal to all federal, state and local government web resources and services.